Time;durP1;ratioP1;P1;durP2;ratioP2;P2;SDS_P1;SDS_P2;PMS_P1;PMS_P2;Temp;Humidity;BMP_temperature;BMP_pressure;BME280_temperature;BME280_humidity;BME280_pressure;Samples;Min_cycle;Max_cycle;Signal;HPM_P1;HPM_P2
2021/07/30 00:00:25;;;;;;;17.95;4.32;;;14.40;99.90;;;;;;5075302;28;20027;-77
2021/07/30 00:02:51;;;;;;;15.25;4.00;;;14.40;99.90;;;;;;5075313;28;20393;-76
2021/07/30 00:05:17;;;;;;;17.50;4.43;;;14.40;99.90;;;;;;5075356;28;20020;-75
2021/07/30 00:07:44;;;;;;;24.70;6.35;;;14.40;99.90;;;;;;5093158;28;20032;-75
2021/07/30 00:10:10;;;;;;;18.80;4.53;;;14.30;99.90;;;;;;5092959;28;20046;-75
2021/07/30 00:12:36;;;;;;;20.40;5.75;;;14.20;99.90;;;;;;5093275;28;20030;-75
2021/07/30 00:15:02;;;;;;;30.17;7.38;;;14.20;99.90;;;;;;5075020;28;20020;-75
2021/07/30 00:17:27;;;;;;;44.53;9.40;;;14.20;99.90;;;;;;5093029;28;20032;-75
2021/07/30 00:19:53;;;;;;;60.33;11.95;;;14.10;99.90;;;;;;5092834;28;20024;-75
2021/07/30 00:22:18;;;;;;;106.65;22.05;;;14.10;99.90;;;;;;5092335;28;20035;-74
2021/07/30 00:24:44;;;;;;;51.03;9.98;;;14.10;99.90;;;;;;5092929;28;20059;-75
2021/07/30 00:27:09;;;;;;;88.60;14.45;;;14.10;99.90;;;;;;5092933;28;20027;-75
2021/07/30 00:29:37;;;;;;;75.22;15.15;;;14.10;99.90;;;;;;5092709;28;20035;-75
2021/07/30 00:32:04;;;;;;;81.33;15.30;;;14.10;99.90;;;;;;5092820;28;20039;-75
2021/07/30 00:34:30;;;;;;;130.70;21.95;;;14.10;99.90;;;;;;5093398;28;20099;-75
2021/07/30 00:36:55;;;;;;;185.52;36.97;;;14.10;99.90;;;;;;5074155;28;20170;-75
2021/07/30 00:39:21;;;;;;;243.82;45.42;;;14.00;99.90;;;;;;5092799;28;20591;-75
2021/07/30 00:41:46;;;;;;;389.23;76.45;;;14.10;99.90;;;;;;5093102;28;20028;-75
2021/07/30 00:44:12;;;;;;;435.80;83.80;;;14.00;99.90;;;;;;5093164;28;20039;-75
2021/07/30 00:46:37;;;;;;;400.15;77.18;;;14.00;99.90;;;;;;5093258;28;20016;-75
2021/07/30 00:49:04;;;;;;;228.05;42.28;;;14.00;99.90;;;;;;5074819;28;20398;-75
2021/07/30 00:51:29;;;;;;;185.52;38.35;;;14.00;99.90;;;;;;5092894;28;20024;-75
2021/07/30 00:53:55;;;;;;;70.90;12.38;;;14.00;99.90;;;;;;5092995;28;20043;-75
2021/07/30 00:56:22;;;;;;;57.55;12.13;;;14.00;99.90;;;;;;5092699;28;20031;-75
2021/07/30 00:58:48;;;;;;;55.10;9.65;;;14.00;99.90;;;;;;5095967;28;20427;-75
2021/07/30 01:01:15;;;;;;;46.25;10.38;;;13.90;99.90;;;;;;5078535;28;20031;-76
2021/07/30 01:03:40;;;;;;;28.42;5.80;;;13.90;99.90;;;;;;5079117;28;20377;-74
2021/07/30 01:06:06;;;;;;;24.30;4.22;;;13.90;99.90;;;;;;5096564;28;20035;-74
2021/07/30 01:08:32;;;;;;;18.23;5.25;;;13.90;99.90;;;;;;5096598;28;20530;-74
2021/07/30 01:10:57;;;;;;;17.10;3.03;;;13.90;99.90;;;;;;5096484;28;20104;-74
2021/07/30 01:13:23;;;;;;;13.60;2.60;;;13.90;99.90;;;;;;5077907;28;20028;-74
2021/07/30 01:15:48;;;;;;;10.15;2.78;;;13.90;99.90;;;;;;5078183;28;20028;-74
2021/07/30 01:18:14;;;;;;;13.77;3.00;;;13.90;99.90;;;;;;5096639;28;20423;-74
2021/07/30 01:20:43;;;;;;;33.40;7.30;;;13.90;99.90;;;;;;5096519;28;20477;-74
2021/07/30 01:23:11;;;;;;;37.50;7.22;;;13.90;99.90;;;;;;5078160;28;20028;-74
2021/07/30 01:25:37;;;;;;;46.00;11.45;;;13.90;99.90;;;;;;5078802;28;20028;-74
2021/07/30 01:28:03;;;;;;;54.05;12.10;;;13.90;99.90;;;;;;5096245;28;20469;-74
2021/07/30 01:30:29;;;;;;;52.83;11.85;;;13.90;99.90;;;;;;5096071;28;20077;-74
2021/07/30 01:32:54;;;;;;;49.55;9.77;;;13.90;99.90;;;;;;5096426;28;20449;-74
2021/07/30 01:35:20;;;;;;;48.97;11.65;;;13.90;99.90;;;;;;5096595;28;20024;-74
2021/07/30 01:37:46;;;;;;;35.75;8.20;;;13.90;99.90;;;;;;5077713;28;20427;-75
2021/07/30 01:40:12;;;;;;;49.17;10.15;;;13.90;99.90;;;;;;5096138;28;20373;-75
2021/07/30 01:42:38;;;;;;;40.33;8.45;;;13.80;99.90;;;;;;5077763;28;20490;-75
2021/07/30 01:45:06;;;;;;;48.58;10.85;;;13.80;99.90;;;;;;5077681;28;20032;-75
2021/07/30 01:47:34;;;;;;;59.13;11.75;;;13.80;99.90;;;;;;5095604;28;20032;-75
2021/07/30 01:50:00;;;;;;;63.28;15.32;;;13.80;99.90;;;;;;5077587;28;20019;-75
2021/07/30 01:52:25;;;;;;;49.00;12.73;;;13.70;99.90;;;;;;5077561;28;20026;-75
2021/07/30 01:54:51;;;;;;;36.42;8.68;;;13.70;99.90;;;;;;5095549;28;20024;-74
2021/07/30 01:57:18;;;;;;;33.92;8.60;;;13.60;99.90;;;;;;5055342;28;20033;-75
2021/07/30 01:59:43;;;;;;;16.92;3.92;;;13.50;99.90;;;;;;5053962;28;20377;-75
2021/07/30 02:02:09;;;;;;;15.07;4.20;;;13.50;99.90;;;;;;5054153;28;20096;-75
2021/07/30 02:04:34;;;;;;;18.58;5.00;;;13.40;99.90;;;;;;5075678;28;20032;-75
2021/07/30 02:07:00;;;;;;;15.85;4.75;;;13.40;99.90;;;;;;5095401;28;20566;-75
2021/07/30 02:09:29;;;;;;;14.50;4.45;;;13.30;99.90;;;;;;5076738;28;20500;-75
2021/07/30 02:11:54;;;;;;;11.40;3.33;;;13.30;99.90;;;;;;5076935;28;20016;-75
2021/07/30 02:14:24;;;;;;;10.88;3.70;;;13.20;99.90;;;;;;5095376;28;20023;-76
2021/07/30 02:16:53;;;;;;;13.25;3.35;;;13.20;99.90;;;;;;5095876;28;20460;-75
2021/07/30 02:19:20;;;;;;;8.55;2.38;;;13.20;99.90;;;;;;5095375;28;20020;-75
2021/07/30 02:21:50;;;;;;;11.65;3.40;;;13.10;99.90;;;;;;5076844;28;20114;-75
2021/07/30 02:24:16;;;;;;;9.90;2.50;;;13.10;99.90;;;;;;5094939;28;20489;-75
2021/07/30 02:26:41;;;;;;;14.25;3.08;;;13.00;99.90;;;;;;5095363;28;20103;-75
2021/07/30 02:29:07;;;;;;;8.82;2.88;;;13.00;99.90;;;;;;5076939;28;20048;-75
2021/07/30 02:31:33;;;;;;;10.18;3.20;;;12.90;99.90;;;;;;5094893;28;20022;-75
2021/07/30 02:33:59;;;;;;;14.82;4.32;;;12.90;99.90;;;;;;5095026;28;20024;-77
2021/07/30 02:36:24;;;;;;;19.67;5.45;;;12.90;99.90;;;;;;5076686;28;20035;-76
2021/07/30 02:38:50;;;;;;;21.67;6.43;;;12.90;99.90;;;;;;5094878;28;20020;-76
2021/07/30 02:41:16;;;;;;;19.95;5.45;;;13.00;99.90;;;;;;5094858;28;20028;-76
2021/07/30 02:43:42;;;;;;;12.23;3.65;;;13.00;99.90;;;;;;5076611;28;20119;-76
2021/07/30 02:46:08;;;;;;;12.55;3.08;;;13.00;99.90;;;;;;5094584;28;20366;-76
2021/07/30 02:48:34;;;;;;;10.38;3.10;;;13.10;99.90;;;;;;5094710;28;20031;-76
2021/07/30 02:51:00;;;;;;;12.48;2.35;;;13.10;99.90;;;;;;5094544;28;20385;-76
2021/07/30 02:53:26;;;;;;;8.18;2.50;;;13.10;99.90;;;;;;5076665;28;20079;-76
2021/07/30 02:55:52;;;;;;;13.93;3.38;;;13.10;99.90;;;;;;5076136;28;20036;-76
2021/07/30 02:58:17;;;;;;;8.90;2.80;;;13.30;99.90;;;;;;5094371;28;20031;-76
2021/07/30 03:00:43;;;;;;;13.68;3.00;;;13.10;99.90;;;;;;5076297;28;20489;-76
2021/07/30 03:03:08;;;;;;;9.95;2.35;;;13.10;99.90;;;;;;5076305;28;20049;-76
2021/07/30 03:05:34;;;;;;;7.88;2.00;;;13.10;99.90;;;;;;5094193;28;20020;-77
2021/07/30 03:07:59;;;;;;;12.85;2.55;;;13.10;99.90;;;;;;5076242;28;20484;-77
2021/07/30 03:10:25;;;;;;;8.98;2.00;;;13.10;99.90;;;;;;5076061;28;20085;-77
2021/07/30 03:12:50;;;;;;;6.78;2.10;;;13.10;99.90;;;;;;5094169;28;20024;-77
2021/07/30 03:15:16;;;;;;;7.70;1.65;;;13.10;99.90;;;;;;5094998;28;20149;-77
2021/07/30 03:17:42;;;;;;;9.63;2.08;;;13.10;99.90;;;;;;5094318;28;20016;-77
2021/07/30 03:20:08;;;;;;;10.85;2.10;;;13.10;99.90;;;;;;5076063;28;20028;-77
2021/07/30 03:22:34;;;;;;;6.55;1.95;;;13.10;99.90;;;;;;5094286;28;20493;-77
2021/07/30 03:25:00;;;;;;;9.15;2.05;;;13.10;99.90;;;;;;5075804;28;20024;-77
2021/07/30 03:27:26;;;;;;;7.97;1.77;;;13.10;99.90;;;;;;5075373;28;20028;-77
2021/07/30 03:29:52;;;;;;;6.78;1.65;;;13.10;99.90;;;;;;5094211;28;20016;-77
2021/07/30 03:32:19;;;;;;;5.68;1.67;;;13.00;99.90;;;;;;5093659;28;20034;-77
2021/07/30 03:34:46;;;;;;;7.28;1.55;;;13.00;99.90;;;;;;5075531;28;20020;-77
2021/07/30 03:37:12;;;;;;;10.32;1.90;;;13.00;99.90;;;;;;5093880;28;20447;-77
2021/07/30 03:39:38;;;;;;;8.63;1.77;;;13.00;99.90;;;;;;5075654;28;20397;-77
2021/07/30 03:42:04;;;;;;;7.90;1.42;;;13.00;99.90;;;;;;5075638;28;20027;-77
2021/07/30 03:44:29;;;;;;;6.05;1.60;;;13.00;99.90;;;;;;5075590;28;20028;-77
2021/07/30 03:46:55;;;;;;;7.70;1.52;;;13.00;99.90;;;;;;5093762;28;20024;-77
2021/07/30 03:49:20;;;;;;;5.80;1.67;;;13.00;99.90;;;;;;5093328;28;20023;-77
2021/07/30 03:51:46;;;;;;;8.07;2.45;;;13.00;99.90;;;;;;5093454;28;20016;-77
2021/07/30 03:54:12;;;;;;;6.95;2.30;;;13.10;99.90;;;;;;5093970;28;20028;-77
2021/07/30 03:56:39;;;;;;;8.82;1.88;;;13.10;99.90;;;;;;5093407;28;20028;-77
2021/07/30 03:59:05;;;;;;;8.13;1.88;;;13.10;99.90;;;;;;5093901;28;20470;-77
2021/07/30 04:01:30;;;;;;;6.85;1.58;;;13.10;99.90;;;;;;5093891;28;20034;-77
2021/07/30 04:03:56;;;;;;;7.90;1.92;;;13.20;99.90;;;;;;5093416;28;20031;-74
2021/07/30 04:06:21;;;;;;;6.30;1.90;;;13.20;99.90;;;;;;5075274;28;20107;-75
2021/07/30 04:08:47;;;;;;;6.07;1.80;;;13.20;99.90;;;;;;5093075;28;20032;-76
2021/07/30 04:11:12;;;;;;;11.00;2.08;;;13.20;99.90;;;;;;5075182;28;20020;-76
2021/07/30 04:13:38;;;;;;;6.90;1.65;;;13.60;99.90;;;;;;5093872;28;20016;-76
2021/07/30 04:16:06;;;;;;;8.60;2.08;;;13.30;99.90;;;;;;5093684;28;20028;-76
2021/07/30 04:18:31;;;;;;;7.22;1.73;;;13.30;99.90;;;;;;5075181;28;20118;-77
2021/07/30 04:20:57;;;;;;;9.27;1.90;;;13.30;99.90;;;;;;5075708;28;20063;-77
2021/07/30 04:23:23;;;;;;;6.30;1.35;;;13.30;99.90;;;;;;5093045;28;20442;-77
2021/07/30 04:25:48;;;;;;;9.10;1.65;;;13.40;99.90;;;;;;5074965;28;20016;-74
2021/07/30 04:28:14;;;;;;;6.13;1.73;;;13.40;99.90;;;;;;5075075;28;20028;-74
2021/07/30 04:30:40;;;;;;;6.10;1.67;;;13.50;99.90;;;;;;5093658;28;20016;-74
2021/07/30 04:33:07;;;;;;;5.85;1.35;;;13.50;99.90;;;;;;5096809;28;20051;-74
2021/07/30 04:35:35;;;;;;;7.78;1.50;;;13.60;99.90;;;;;;5097266;28;20042;-74
2021/07/30 04:38:00;;;;;;;9.10;1.85;;;13.60;99.90;;;;;;5097598;28;20060;-74
2021/07/30 04:40:26;;;;;;;10.15;2.00;;;13.70;99.90;;;;;;5096925;28;20415;-74
2021/07/30 04:42:54;;;;;;;7.93;1.35;;;13.70;99.90;;;;;;5097397;28;20036;-74
2021/07/30 04:45:20;;;;;;;5.45;1.83;;;13.80;99.90;;;;;;5079049;28;20115;-74
2021/07/30 04:47:45;;;;;;;7.80;1.60;;;13.80;99.90;;;;;;5097556;28;20095;-74
2021/07/30 04:50:11;;;;;;;7.03;1.70;;;13.80;99.90;;;;;;5096967;28;20066;-74
2021/07/30 04:52:36;;;;;;;6.88;2.00;;;13.90;99.90;;;;;;5096888;28;20031;-74
2021/07/30 04:55:02;;;;;;;6.97;1.83;;;13.90;99.90;;;;;;5096775;28;20023;-74
2021/07/30 04:57:28;;;;;;;7.55;1.95;;;14.00;99.90;;;;;;5096737;28;20097;-74
2021/07/30 04:59:53;;;;;;;10.73;3.00;;;14.00;99.90;;;;;;5096574;28;20032;-74
2021/07/30 05:02:19;;;;;;;6.80;1.85;;;14.00;99.90;;;;;;5096681;28;20380;-74
2021/07/30 05:04:44;;;;;;;5.22;2.33;;;14.10;99.90;;;;;;5096954;28;20024;-74
2021/07/30 05:07:10;;;;;;;9.10;1.70;;;14.10;99.90;;;;;;5096517;28;20024;-74
2021/07/30 05:09:36;;;;;;;8.73;2.42;;;14.10;99.90;;;;;;5096708;28;20099;-74
2021/07/30 05:12:02;;;;;;;7.55;2.03;;;14.10;99.90;;;;;;5096546;28;20051;-74
2021/07/30 05:14:27;;;;;;;6.78;2.28;;;14.10;99.90;;;;;;5096599;28;20469;-77
2021/07/30 05:16:53;;;;;;;7.07;1.85;;;14.10;99.90;;;;;;5096498;28;20020;-76
2021/07/30 05:19:18;;;;;;;5.97;2.08;;;14.10;99.90;;;;;;5096333;28;20028;-77
2021/07/30 05:21:44;;;;;;;10.13;2.70;;;14.20;99.90;;;;;;5096952;28;20032;-77
2021/07/30 05:24:09;;;;;;;5.80;2.20;;;14.20;99.90;;;;;;5096356;28;20020;-76
2021/07/30 05:26:35;;;;;;;9.95;2.78;;;14.20;99.90;;;;;;5096462;28;20032;-77
2021/07/30 05:29:01;;;;;;;8.50;2.40;;;14.30;99.90;;;;;;5095979;28;20393;-77
2021/07/30 05:31:28;;;;;;;8.50;2.30;;;14.40;99.90;;;;;;5077897;28;20525;-77
2021/07/30 05:33:54;;;;;;;6.55;1.83;;;14.40;99.90;;;;;;5095992;28;20500;-77
2021/07/30 05:36:20;;;;;;;10.23;3.00;;;14.50;99.90;;;;;;5096426;28;20024;-78
2021/07/30 05:38:47;;;;;;;8.27;2.35;;;14.60;99.90;;;;;;5079097;28;20024;-77
2021/07/30 05:41:14;;;;;;;4.70;2.10;;;14.60;99.90;;;;;;5077863;28;20089;-75
2021/07/30 05:43:42;;;;;;;7.05;2.38;;;14.60;99.90;;;;;;5095052;28;20048;-74
2021/07/30 05:46:09;;;;;;;10.50;2.17;;;14.60;99.90;;;;;;5077367;28;20107;-74
2021/07/30 05:48:34;;;;;;;4.75;2.47;;;14.60;99.90;;;;;;5095873;28;20492;-75
2021/07/30 05:51:00;;;;;;;11.27;2.13;;;14.60;99.90;;;;;;5095757;28;20020;-75
2021/07/30 05:53:29;;;;;;;8.60;2.53;;;14.70;99.90;;;;;;5077808;28;20093;-75
2021/07/30 05:55:55;;;;;;;8.23;2.80;;;14.70;99.90;;;;;;5077680;28;20382;-75
2021/07/30 05:58:21;;;;;;;5.50;2.00;;;14.80;99.90;;;;;;5095635;28;20042;-75
2021/07/30 06:00:46;;;;;;;6.20;2.45;;;14.90;99.90;;;;;;5078678;28;20027;-78
2021/07/30 06:03:12;;;;;;;10.73;2.72;;;15.00;99.90;;;;;;5097174;28;20024;-78
2021/07/30 06:05:37;;;;;;;8.73;2.28;;;15.10;99.90;;;;;;5079146;28;20365;-78
2021/07/30 06:08:05;;;;;;;11.27;3.22;;;15.30;99.90;;;;;;5097432;28;20028;-78
2021/07/30 06:10:32;;;;;;;9.52;2.60;;;15.50;99.90;;;;;;5076290;28;20366;-78
2021/07/30 06:12:57;;;;;;;8.88;1.98;;;15.60;99.90;;;;;;5078004;28;20020;-74
2021/07/30 06:15:23;;;;;;;11.38;2.05;;;15.70;99.90;;;;;;5077329;28;20023;-74
2021/07/30 06:17:50;;;;;;;6.25;2.08;;;15.90;99.90;;;;;;5095512;28;20024;-74
2021/07/30 06:20:16;;;;;;;2.42;1.35;;;16.00;99.90;;;;;;5095265;28;20398;-74
2021/07/30 06:22:41;;;;;;;7.45;1.83;;;16.10;99.90;;;;;;5077078;28;20042;-74
2021/07/30 06:25:08;;;;;;;7.60;2.17;;;16.20;99.90;;;;;;5095250;28;20077;-77
2021/07/30 06:27:37;;;;;;;5.60;1.63;;;16.30;99.90;;;;;;5094997;28;20071;-76
2021/07/30 06:30:07;;;;;;;8.90;1.52;;;16.50;99.90;;;;;;5095102;28;20078;-76
2021/07/30 06:32:33;;;;;;;8.93;1.63;;;16.60;99.90;;;;;;5076921;28;20056;-76
2021/07/30 06:34:59;;;;;;;5.70;1.33;;;16.70;99.90;;;;;;5076760;28;20477;-76
2021/07/30 06:37:25;;;;;;;4.78;1.17;;;16.70;99.90;;;;;;5076589;28;20123;-76
2021/07/30 06:39:50;;;;;;;9.68;1.27;;;16.70;99.90;;;;;;5095339;28;20129;-76
2021/07/30 06:42:16;;;;;;;7.57;1.35;;;16.80;99.90;;;;;;5094861;28;20534;-76
2021/07/30 06:44:46;;;;;;;6.05;1.52;;;16.90;99.90;;;;;;5076408;28;20082;-76
2021/07/30 06:47:11;;;;;;;6.80;0.93;;;16.90;99.90;;;;;;5095070;28;20020;-76
2021/07/30 06:49:37;;;;;;;6.10;1.30;;;17.00;99.90;;;;;;5094510;28;20488;-76
2021/07/30 06:52:07;;;;;;;6.80;1.30;;;17.10;99.90;;;;;;5076503;28;20024;-76
2021/07/30 06:54:33;;;;;;;4.60;0.90;;;17.10;99.90;;;;;;5094594;28;20100;-76
2021/07/30 06:57:00;;;;;;;7.78;1.58;;;17.20;99.90;;;;;;5076083;28;20405;-76
2021/07/30 06:59:25;;;;;;;3.00;0.90;;;17.30;99.90;;;;;;5094292;28;20024;-76
2021/07/30 07:01:51;;;;;;;5.45;1.52;;;17.50;99.90;;;;;;5094435;28;20045;-76
2021/07/30 07:04:16;;;;;;;6.82;1.67;;;17.60;99.90;;;;;;5095496;28;20108;-76
2021/07/30 07:06:42;;;;;;;5.28;1.67;;;17.60;99.90;;;;;;5094591;28;20046;-76
2021/07/30 07:09:07;;;;;;;3.10;1.00;;;17.70;99.90;;;;;;5094310;28;20102;-76
2021/07/30 07:11:33;;;;;;;4.63;0.95;;;17.90;99.90;;;;;;5094543;28;20024;-76
2021/07/30 07:13:59;;;;;;;5.65;1.20;;;17.90;99.90;;;;;;5094223;28;20099;-75
2021/07/30 07:16:24;;;;;;;3.38;0.80;;;18.00;99.90;;;;;;5094285;28;20024;-76
2021/07/30 07:18:50;;;;;;;2.08;0.88;;;18.10;99.90;;;;;;5076366;28;20480;-76
2021/07/30 07:21:15;;;;;;;5.55;1.20;;;18.20;99.90;;;;;;5093989;28;20085;-75
2021/07/30 07:23:44;;;;;;;4.53;1.15;;;18.30;99.90;;;;;;5094067;28;20020;-75
2021/07/30 07:26:09;;;;;;;8.13;1.48;;;18.50;99.90;;;;;;5093895;28;20038;-76
2021/07/30 07:28:35;;;;;;;3.58;1.05;;;18.60;99.90;;;;;;5075634;28;20020;-76
2021/07/30 07:31:00;;;;;;;4.13;0.90;;;18.80;99.90;;;;;;5093851;28;20057;-76
2021/07/30 07:33:26;;;;;;;6.03;1.15;;;18.90;99.90;;;;;;5075927;28;20023;-76
2021/07/30 07:35:53;;;;;;;5.85;1.13;;;19.10;99.90;;;;;;5075628;28;20012;-76
2021/07/30 07:38:19;;;;;;;5.70;1.20;;;19.20;99.90;;;;;;5075668;28;20104;-76
2021/07/30 07:40:48;;;;;;;7.18;1.25;;;19.20;99.90;;;;;;5093826;28;20017;-75
2021/07/30 07:43:14;;;;;;;7.90;1.35;;;19.20;99.90;;;;;;5093575;28;20104;-75
2021/07/30 07:45:39;;;;;;;8.32;1.15;;;19.30;99.90;;;;;;5075537;28;20059;-75
2021/07/30 07:48:05;;;;;;;7.60;1.77;;;19.30;99.90;;;;;;5093645;28;20034;-74
2021/07/30 07:50:30;;;;;;;6.40;1.27;;;19.40;99.90;;;;;;5093490;28;20020;-75
2021/07/30 07:52:56;;;;;;;5.18;0.70;;;19.40;99.90;;;;;;5093355;28;20099;-75
2021/07/30 07:55:21;;;;;;;8.15;1.15;;;19.40;99.90;;;;;;5093541;28;20020;-75
2021/07/30 07:57:47;;;;;;;6.88;1.30;;;19.50;99.90;;;;;;5093549;28;20039;-75
2021/07/30 08:00:13;;;;;;;4.43;0.75;;;19.60;99.90;;;;;;5093678;28;20039;-75
2021/07/30 08:02:38;;;;;;;3.85;1.15;;;19.70;99.90;;;;;;5093762;28;20107;-74
2021/07/30 08:05:04;;;;;;;4.80;1.75;;;19.80;99.90;;;;;;5093278;28;20111;-75
2021/07/30 08:07:30;;;;;;;4.28;0.82;;;20.00;99.90;;;;;;5074867;28;20024;-75
2021/07/30 08:09:55;;;;;;;6.65;1.02;;;20.10;99.90;;;;;;5093148;28;20028;-75
2021/07/30 08:12:21;;;;;;;8.45;1.48;;;20.30;99.90;;;;;;5075361;28;20024;-75
2021/07/30 08:14:47;;;;;;;6.53;1.80;;;20.40;99.90;;;;;;5093823;28;20035;-75
2021/07/30 08:17:12;;;;;;;5.53;1.38;;;20.30;99.90;;;;;;5075255;28;20052;-75
2021/07/30 08:19:38;;;;;;;6.93;1.60;;;20.40;99.90;;;;;;5075168;28;20028;-75
2021/07/30 08:22:04;;;;;;;10.38;1.58;;;20.50;99.90;;;;;;5093045;28;20393;-76
2021/07/30 08:24:31;;;;;;;4.57;1.23;;;20.70;99.90;;;;;;5093060;28;20032;-76
2021/07/30 08:26:56;;;;;;;5.72;0.82;;;20.90;99.90;;;;;;5093448;28;20387;-75
2021/07/30 08:29:22;;;;;;;7.22;1.77;;;21.10;99.90;;;;;;5093254;28;20020;-76
2021/07/30 08:31:48;;;;;;;7.80;1.13;;;21.40;99.90;;;;;;5093750;28;20061;-77
2021/07/30 08:34:15;;;;;;;5.25;0.60;;;21.50;99.90;;;;;;5093971;28;20376;-78
2021/07/30 08:36:41;;;;;;;6.45;1.25;;;21.70;99.90;;;;;;5093347;28;20036;-77
2021/07/30 08:39:06;;;;;;;2.63;0.75;;;21.80;99.20;;;;;;5075046;28;20028;-75
2021/07/30 08:41:34;;;;;;;5.15;0.77;;;21.90;99.10;;;;;;5095453;28;20035;-75
2021/07/30 08:43:59;;;;;;;4.78;0.60;;;21.90;97.40;;;;;;5074963;28;20020;-74
2021/07/30 08:46:26;;;;;;;2.05;0.35;;;22.10;96.10;;;;;;5093564;28;20024;-77
2021/07/30 08:48:53;;;;;;;2.85;0.43;;;22.20;95.80;;;;;;5074957;28;20526;-76
2021/07/30 08:51:19;;;;;;;2.05;0.80;;;22.40;95.10;;;;;;5092942;28;20020;-75
2021/07/30 08:53:46;;;;;;;4.18;0.82;;;22.30;95.20;;;;;;5078743;28;20027;-79
2021/07/30 08:56:12;;;;;;;4.38;0.73;;;22.20;93.60;;;;;;5096116;28;20012;-77
2021/07/30 08:58:38;;;;;;;5.22;0.38;;;22.20;93.00;;;;;;5075168;28;20020;-77
2021/07/30 09:01:04;;;;;;;3.50;0.80;;;22.60;94.10;;;;;;5093861;28;20032;-77
2021/07/30 09:03:44;;;;;;;2.25;0.60;;;22.00;93.60;;;;;;5075093;28;20023;-77
2021/07/30 09:06:17;;;;;;;2.33;0.43;;;21.90;94.90;;;;;;5092892;28;20024;-74
2021/07/30 09:09:02;;;;;;;3.42;1.00;;;22.00;94.20;;;;;;5084164;28;20024;-75
2021/07/30 09:11:34;;;;;;;4.90;0.93;;;22.10;93.50;;;;;;5091067;28;20032;-78
2021/07/30 09:14:03;;;;;;;2.92;0.60;;;22.10;93.50;;;;;;5096952;28;20016;-76
2021/07/30 09:16:29;;;;;;;5.40;0.82;;;22.00;93.40;;;;;;5096923;28;20032;-74
2021/07/30 09:18:55;;;;;;;5.00;0.43;;;22.00;94.10;;;;;;5097892;28;20380;-76
2021/07/30 09:21:33;;;;;;;4.43;0.60;;;22.10;95.00;;;;;;5079613;28;20024;-73
2021/07/30 09:24:14;;;;;;;7.28;1.63;;;22.10;93.50;;;;;;5083576;28;20032;-74
2021/07/30 09:26:40;;;;;;;2.33;0.45;;;22.20;93.40;;;;;;5040355;28;20412;-75
2021/07/30 09:29:06;;;;;;;1.75;0.38;;;22.20;92.80;;;;;;5058724;28;20021;-75
2021/07/30 09:31:44;;;;;;;1.00;0.20;;;22.20;94.40;;;;;;5096195;28;20076;-77
2021/07/30 09:34:20;;;;;;;3.85;0.20;;;22.30;94.40;;;;;;5081769;28;20016;-77
2021/07/30 09:36:59;;;;;;;3.60;0.57;;;22.50;93.00;;;;;;5098771;28;20032;-76
2021/07/30 09:39:28;;;;;;;5.70;0.52;;;22.50;92.80;;;;;;5096004;28;20062;-76
2021/07/30 09:41:54;;;;;;;;;;;22.50;92.70;;;;;;5080615;28;20036;-79
2021/07/30 09:44:20;;;;;;;3.83;0.35;;;22.50;92.90;;;;;;5078086;28;19904;-80
2021/07/30 09:47:06;;;;;;;4.30;0.40;;;22.70;92.90;;;;;;5094060;28;20357;-76
2021/07/30 09:49:57;;;;;;;1.38;0.30;;;23.00;93.20;;;;;;5095905;28;20027;-75
2021/07/30 09:52:38;;;;;;;3.78;0.57;;;23.30;92.30;;;;;;5095742;28;20453;-75
2021/07/30 09:55:12;;;;;;;1.52;0.15;;;23.60;91.00;;;;;;5095422;28;20016;-75
2021/07/30 09:57:39;;;;;;;3.15;0.55;;;23.60;88.00;;;;;;5095663;28;20031;-74
2021/07/30 10:00:12;;;;;;;1.83;0.50;;;23.80;90.00;;;;;;5077671;28;20028;-75
2021/07/30 10:02:40;;;;;;;5.43;0.30;;;24.10;88.40;;;;;;5077642;28;20469;-75
2021/07/30 10:05:10;;;;;;;5.63;0.95;;;24.30;87.80;;;;;;5095765;28;20115;-76
2021/07/30 10:07:37;;;;;;;1.98;0.45;;;24.30;84.10;;;;;;5094782;28;20028;-76
2021/07/30 10:12:42;;;;;;;3.03;0.20;;;24.30;84.10;;;;;;5095355;28;20348;-74
2021/07/30 10:15:08;;;;;;;2.15;0.50;;;24.20;81.60;;;;;;5095758;28;20031;-74
2021/07/30 10:17:42;;;;;;;7.53;0.47;;;24.10;84.50;;;;;;5077707;28;20059;-78
2021/07/30 10:20:10;;;;;;;0.93;0.30;;;23.90;82.40;;;;;;5077733;28;20477;-75
2021/07/30 10:23:03;;;;;;;3.80;0.47;;;23.80;83.50;;;;;;5094697;28;20436;-75
2021/07/30 10:25:47;;;;;;;1.52;0.45;;;23.70;83.40;;;;;;5094916;28;20016;-75
2021/07/30 10:28:20;;;;;;;1.60;0.32;;;23.70;83.70;;;;;;5095574;28;20438;-78
2021/07/30 10:30:56;;;;;;;4.97;0.90;;;23.80;84.10;;;;;;5095016;28;20024;-75
2021/07/30 10:33:30;;;;;;;5.03;0.90;;;23.80;86.40;;;;;;5094785;28;20061;-75
2021/07/30 10:35:57;;;;;;;2.22;0.40;;;23.90;85.70;;;;;;5076990;28;20362;-75
2021/07/30 10:38:24;;;;;;;4.93;0.77;;;24.00;85.80;;;;;;5092480;28;20016;-75
2021/07/30 10:40:55;;;;;;;2.00;0.43;;;23.90;84.40;;;;;;5094413;28;20139;-75
2021/07/30 10:43:28;;;;;;;2.70;0.82;;;23.90;84.70;;;;;;5094849;28;20099;-74
2021/07/30 10:46:05;;;;;;;1.75;0.82;;;23.90;83.20;;;;;;5054480;28;20025;-75
2021/07/30 10:48:31;;;;;;;5.05;0.50;;;23.80;85.00;;;;;;5072925;28;20115;-75
2021/07/30 10:51:01;;;;;;;4.78;0.93;;;23.80;85.30;;;;;;5094906;28;20080;-77
2021/07/30 10:53:38;;;;;;;2.25;0.77;;;23.60;87.90;;;;;;5094418;28;20020;-78
2021/07/30 10:56:17;;;;;;;3.25;1.05;;;23.60;85.30;;;;;;5070962;23;20091;-75
2021/07/30 10:58:45;;;;;;;2.10;0.40;;;23.40;85.10;;;;;;5114990;28;20028;-77
2021/07/30 11:01:15;;;;;;;4.13;1.10;;;23.30;86.90;;;;;;5096944;28;20023;-74
2021/07/30 11:03:53;;;;;;;2.80;0.52;;;23.40;89.70;;;;;;5114946;28;20385;-75
2021/07/30 11:06:21;;;;;;;2.65;0.52;;;23.40;89.20;;;;;;5095959;28;20039;-76
2021/07/30 11:09:04;;;;;;;4.97;0.73;;;23.40;89.90;;;;;;5114486;28;20028;-76
2021/07/30 11:11:42;;;;;;;4.32;0.80;;;23.70;89.30;;;;;;5096405;28;20028;-78
2021/07/30 11:14:14;;;;;;;5.05;0.80;;;23.70;87.40;;;;;;5096136;28;20362;-77
2021/07/30 11:16:40;;;;;;;6.68;1.15;;;23.70;88.20;;;;;;5114262;28;20059;-77
2021/07/30 11:19:07;;;;;;;3.58;0.63;;;23.60;90.20;;;;;;5114224;28;20027;-79
2021/07/30 11:21:33;;;;;;;1.40;0.40;;;23.60;89.30;;;;;;5114565;28;20024;-78
2021/07/30 11:24:00;;;;;;;1.42;0.55;;;23.50;90.30;;;;;;5096364;28;20020;-75
2021/07/30 11:26:26;;;;;;;3.10;0.52;;;23.40;90.60;;;;;;5114608;28;20381;-75
2021/07/30 11:28:55;;;;;;;1.55;0.70;;;23.30;91.00;;;;;;5096097;28;20020;-75
2021/07/30 11:31:21;;;;;;;2.78;0.77;;;23.20;88.90;;;;;;5114690;28;20024;-75
2021/07/30 11:33:48;;;;;;;4.30;0.38;;;23.10;88.80;;;;;;5096181;28;20016;-75
2021/07/30 11:36:14;;;;;;;3.33;0.50;;;23.10;91.00;;;;;;5112043;28;20488;-74
2021/07/30 11:38:56;;;;;;;0.70;0.30;;;23.00;90.40;;;;;;5114515;28;20371;-75
2021/07/30 11:41:23;;;;;;;1.50;0.32;;;23.00;92.20;;;;;;5093778;28;20369;-76
2021/07/30 11:44:07;;;;;;;1.88;0.20;;;23.00;91.50;;;;;;5093667;28;20023;-76
2021/07/30 11:46:33;;;;;;;1.13;0.50;;;23.00;93.60;;;;;;5074372;28;20062;-79
2021/07/30 11:49:00;;;;;;;2.30;0.60;;;22.90;93.50;;;;;;5092675;28;20024;-77
2021/07/30 11:51:26;;;;;;;0.95;0.13;;;22.80;93.20;;;;;;5101318;28;20112;-78
2021/07/30 11:53:54;;;;;;;1.85;0.50;;;22.80;95.30;;;;;;5095886;28;20020;-75
2021/07/30 11:56:20;;;;;;;4.68;1.10;;;22.70;95.60;;;;;;5095977;28;20062;-75
2021/07/30 11:58:58;;;;;;;1.10;0.30;;;22.50;95.50;;;;;;5114172;28;20016;-75
2021/07/30 12:01:28;;;;;;;;;;;22.50;93.60;;;;;;5114821;28;20023;-74
2021/07/30 12:04:13;;;;;;;2.50;0.38;;;22.50;92.90;;;;;;5113674;28;20385;-75
2021/07/30 12:06:43;;;;;;;3.30;0.25;;;22.50;94.10;;;;;;5095423;28;20054;-75
2021/07/30 12:09:10;;;;;;;3.25;0.40;;;22.50;94.20;;;;;;5095287;28;20073;-75
2021/07/30 12:11:38;;;;;;;4.15;0.10;;;22.50;92.20;;;;;;5113627;28;20491;-75
2021/07/30 12:14:05;;;;;;;1.15;0.28;;;22.40;92.20;;;;;;5113289;28;20019;-76
2021/07/30 12:16:31;;;;;;;2.72;0.15;;;22.30;93.10;;;;;;5113619;28;20480;-79
2021/07/30 12:18:57;;;;;;;1.10;0.43;;;22.30;93.60;;;;;;5114757;28;20430;-79
2021/07/30 12:21:23;;;;;;;1.67;0.55;;;22.30;94.00;;;;;;5095387;28;20020;-75
2021/07/30 12:23:48;;;;;;;2.72;0.50;;;22.30;93.70;;;;;;5095459;28;20016;-76
2021/07/30 12:26:35;;;;;;;2.60;0.57;;;22.20;93.30;;;;;;5113482;28;20020;-76
2021/07/30 12:29:02;;;;;;;0.50;0.10;;;22.20;94.10;;;;;;5095637;28;20106;-77
2021/07/30 12:31:28;;;;;;;3.15;0.22;;;22.20;94.80;;;;;;5114909;28;20046;-79
2021/07/30 12:34:16;;;;;;;2.92;0.60;;;22.30;94.20;;;;;;5113794;28;20020;-76
2021/07/30 12:36:42;;;;;;;1.85;0.40;;;22.10;93.60;;;;;;5113592;28;20038;-77
2021/07/30 12:39:09;;;;;;;2.55;0.28;;;22.10;93.90;;;;;;5117851;22;20040;-77
2021/07/30 12:41:35;;;;;;;0.98;0.20;;;22.00;94.40;;;;;;5093206;28;20376;-76
2021/07/30 12:44:14;;;;;;;1.80;0.30;;;22.00;94.50;;;;;;5093806;28;20477;-78
2021/07/30 12:46:47;;;;;;;3.13;0.70;;;22.00;95.30;;;;;;5094291;28;20103;-78